sensor_id;sensor_type;location;lat;lon;timestamp;temperature;humidity
47226;DHT22;32965;64.142;-21.912;2022-08-19T00:03:07;10.80;99.90
47226;DHT22;32965;64.142;-21.912;2022-08-19T00:06:28;10.00;99.90
47226;DHT22;32965;64.142;-21.912;2022-08-19T00:10:20;10.80;99.90
47226;DHT22;32965;64.142;-21.912;2022-08-19T00:12:52;10.90;99.90
47226;DHT22;32965;64.142;-21.912;2022-08-19T00:16:24;10.80;99.90
47226;DHT22;32965;64.142;-21.912;2022-08-19T00:20:20;10.80;99.90
47226;DHT22;32965;64.142;-21.912;2022-08-19T00:23:21;10.70;99.90
47226;DHT22;32965;64.142;-21.912;2022-08-19T00:26:20;10.70;99.90
47226;DHT22;32965;64.142;-21.912;2022-08-19T00:29:18;10.70;99.90
47226;DHT22;32965;64.142;-21.912;2022-08-19T00:31:54;10.70;99.90
47226;DHT22;32965;64.142;-21.912;2022-08-19T00:34:24;10.70;99.90
47226;DHT22;32965;64.142;-21.912;2022-08-19T00:39:23;10.50;99.90
47226;DHT22;32965;64.142;-21.912;2022-08-19T00:42:10;10.50;99.90
47226;DHT22;32965;64.142;-21.912;2022-08-19T00:44:42;10.50;99.90
47226;DHT22;32965;64.142;-21.912;2022-08-19T00:47:14;10.40;99.90
47226;DHT22;32965;64.142;-21.912;2022-08-19T00:50:15;10.40;99.90
47226;DHT22;32965;64.142;-21.912;2022-08-19T00:53:34;10.40;99.90
47226;DHT22;32965;64.142;-21.912;2022-08-19T00:56:51;10.60;99.90
47226;DHT22;32965;64.142;-21.912;2022-08-19T01:00:25;8.60;99.90
47226;DHT22;32965;64.142;-21.912;2022-08-19T01:02:52;10.50;99.90
47226;DHT22;32965;64.142;-21.912;2022-08-19T01:08:11;10.50;99.90
47226;DHT22;32965;64.142;-21.912;2022-08-19T01:10:56;10.50;99.90
47226;DHT22;32965;64.142;-21.912;2022-08-19T01:13:53;10.40;99.90
47226;DHT22;32965;64.142;-21.912;2022-08-19T01:16:30;10.50;99.90
47226;DHT22;32965;64.142;-21.912;2022-08-19T01:20:03;10.40;99.90
47226;DHT22;32965;64.142;-21.912;2022-08-19T01:22:56;10.70;99.90
47226;DHT22;32965;64.142;-21.912;2022-08-19T01:29:19;9.20;99.80
47226;DHT22;32965;64.142;-21.912;2022-08-19T01:40:00;10.40;99.60
47226;DHT22;32965;64.142;-21.912;2022-08-19T01:42:53;10.40;99.60
47226;DHT22;32965;64.142;-21.912;2022-08-19T01:45:42;10.20;99.20
47226;DHT22;32965;64.142;-21.912;2022-08-19T01:48:18;10.30;99.40
47226;DHT22;32965;64.142;-21.912;2022-08-19T01:51:19;10.30;99.40
47226;DHT22;32965;64.142;-21.912;2022-08-19T01:54:27;10.10;99.30
47226;DHT22;32965;64.142;-21.912;2022-08-19T02:02:02;10.10;99.70
47226;DHT22;32965;64.142;-21.912;2022-08-19T02:05:30;10.20;99.60
47226;DHT22;32965;64.142;-21.912;2022-08-19T02:11:08;10.10;99.70
47226;DHT22;32965;64.142;-21.912;2022-08-19T02:14:05;10.10;99.60
47226;DHT22;32965;64.142;-21.912;2022-08-19T02:16:38;10.10;99.50
47226;DHT22;32965;64.142;-21.912;2022-08-19T02:19:06;10.00;99.50
47226;DHT22;32965;64.142;-21.912;2022-08-19T02:21:36;10.10;99.50
47226;DHT22;32965;64.142;-21.912;2022-08-19T02:24:26;10.00;99.40
47226;DHT22;32965;64.142;-21.912;2022-08-19T02:27:01;10.10;99.60
47226;DHT22;32965;64.142;-21.912;2022-08-19T02:29:30;10.00;99.60
47226;DHT22;32965;64.142;-21.912;2022-08-19T02:35:16;10.10;99.40
47226;DHT22;32965;64.142;-21.912;2022-08-19T02:38:27;10.00;99.40
47226;DHT22;32965;64.142;-21.912;2022-08-19T02:41:26;10.10;99.30
47226;DHT22;32965;64.142;-21.912;2022-08-19T02:44:02;10.10;99.20
47226;DHT22;32965;64.142;-21.912;2022-08-19T02:46:52;10.00;99.30
47226;DHT22;32965;64.142;-21.912;2022-08-19T02:52:31;10.00;99.20
47226;DHT22;32965;64.142;-21.912;2022-08-19T03:00:56;10.00;99.40
47226;DHT22;32965;64.142;-21.912;2022-08-19T03:03:33;10.00;99.30
47226;DHT22;32965;64.142;-21.912;2022-08-19T03:06:44;10.00;99.50
47226;DHT22;32965;64.142;-21.912;2022-08-19T03:19:37;10.10;98.90
47226;DHT22;32965;64.142;-21.912;2022-08-19T03:22:32;10.30;98.80
47226;DHT22;32965;64.142;-21.912;2022-08-19T03:31:21;10.30;98.90
47226;DHT22;32965;64.142;-21.912;2022-08-19T03:35:05;10.10;99.00
47226;DHT22;32965;64.142;-21.912;2022-08-19T03:46:20;10.30;99.10
47226;DHT22;32965;64.142;-21.912;2022-08-19T03:49:10;10.30;99.10
47226;DHT22;32965;64.142;-21.912;2022-08-19T03:51:57;9.10;98.90
47226;DHT22;32965;64.142;-21.912;2022-08-19T03:57:26;10.40;99.20
47226;DHT22;32965;64.142;-21.912;2022-08-19T04:30:23;10.40;99.10
47226;DHT22;32965;64.142;-21.912;2022-08-19T04:39:29;10.40;99.00
47226;DHT22;32965;64.142;-21.912;2022-08-19T04:42:29;10.20;99.00
47226;DHT22;32965;64.142;-21.912;2022-08-19T05:01:11;10.00;99.90
47226;DHT22;32965;64.142;-21.912;2022-08-19T05:04:21;10.00;99.90
47226;DHT22;32965;64.142;-21.912;2022-08-19T05:09:52;10.00;99.90
47226;DHT22;32965;64.142;-21.912;2022-08-19T05:12:53;10.00;99.90
47226;DHT22;32965;64.142;-21.912;2022-08-19T05:18:01;9.90;99.90
47226;DHT22;32965;64.142;-21.912;2022-08-19T05:20:49;9.90;99.90
47226;DHT22;32965;64.142;-21.912;2022-08-19T05:31:50;9.80;99.90
47226;DHT22;32965;64.142;-21.912;2022-08-19T05:34:39;9.70;99.90
47226;DHT22;32965;64.142;-21.912;2022-08-19T05:37:16;8.40;99.90
47226;DHT22;32965;64.142;-21.912;2022-08-19T05:40:35;8.40;99.90
47226;DHT22;32965;64.142;-21.912;2022-08-19T05:55:08;9.80;99.90
47226;DHT22;32965;64.142;-21.912;2022-08-19T05:57:55;9.80;99.90
47226;DHT22;32965;64.142;-21.912;2022-08-19T06:00:28;9.60;99.90
47226;DHT22;32965;64.142;-21.912;2022-08-19T06:10:39;9.70;99.90
47226;DHT22;32965;64.142;-21.912;2022-08-19T06:14:08;9.50;99.90
47226;DHT22;32965;64.142;-21.912;2022-08-19T06:58:44;9.50;99.90
47226;DHT22;32965;64.142;-21.912;2022-08-19T07:02:26;9.40;99.90
47226;DHT22;32965;64.142;-21.912;2022-08-19T07:05:21;9.50;99.90
47226;DHT22;32965;64.142;-21.912;2022-08-19T07:07:47;9.50;99.90
47226;DHT22;32965;64.142;-21.912;2022-08-19T07:10:15;9.50;99.90
47226;DHT22;32965;64.142;-21.912;2022-08-19T07:12:41;9.50;99.90
47226;DHT22;32965;64.142;-21.912;2022-08-19T07:15:15;9.60;99.90
47226;DHT22;32965;64.142;-21.912;2022-08-19T07:17:48;9.60;99.90
47226;DHT22;32965;64.142;-21.912;2022-08-19T07:20:21;9.60;99.90
47226;DHT22;32965;64.142;-21.912;2022-08-19T07:22:47;9.60;99.90
47226;DHT22;32965;64.142;-21.912;2022-08-19T07:27:45;9.60;99.90
47226;DHT22;32965;64.142;-21.912;2022-08-19T07:30:14;9.60;99.90
47226;DHT22;32965;64.142;-21.912;2022-08-19T07:32:40;9.70;99.90
47226;DHT22;32965;64.142;-21.912;2022-08-19T07:37:45;9.70;99.90
47226;DHT22;32965;64.142;-21.912;2022-08-19T07:43:22;9.80;99.90
47226;DHT22;32965;64.142;-21.912;2022-08-19T07:46:27;9.80;99.90
47226;DHT22;32965;64.142;-21.912;2022-08-19T07:52:25;7.40;99.90
47226;DHT22;32965;64.142;-21.912;2022-08-19T07:58:46;9.80;99.90
47226;DHT22;32965;64.142;-21.912;2022-08-19T09:37:24;11.00;99.90
47226;DHT22;32965;64.142;-21.912;2022-08-19T09:55:25;11.80;98.90
47226;DHT22;32965;64.142;-21.912;2022-08-19T09:58:46;11.90;98.70
47226;DHT22;32965;64.142;-21.912;2022-08-19T10:05:34;12.00;97.90
47226;DHT22;32965;64.142;-21.912;2022-08-19T10:09:20;11.90;97.60
47226;DHT22;32965;64.142;-21.912;2022-08-19T10:24:39;11.70;96.60
47226;DHT22;32965;64.142;-21.912;2022-08-19T10:28:15;11.70;96.50
47226;DHT22;32965;64.142;-21.912;2022-08-19T10:45:26;12.10;96.30
47226;DHT22;32965;64.142;-21.912;2022-08-19T10:59:29;12.30;95.80
47226;DHT22;32965;64.142;-21.912;2022-08-19T11:02:57;12.50;95.80
47226;DHT22;32965;64.142;-21.912;2022-08-19T11:13:31;12.50;95.90
47226;DHT22;32965;64.142;-21.912;2022-08-19T11:20:14;12.70;95.60
47226;DHT22;32965;64.142;-21.912;2022-08-19T11:23:28;12.80;95.50
47226;DHT22;32965;64.142;-21.912;2022-08-19T11:27:26;12.70;95.40
47226;DHT22;32965;64.142;-21.912;2022-08-19T11:33:47;12.70;95.40
47226;DHT22;32965;64.142;-21.912;2022-08-19T11:36:44;12.90;95.40
47226;DHT22;32965;64.142;-21.912;2022-08-19T11:39:32;13.00;94.70
47226;DHT22;32965;64.142;-21.912;2022-08-19T11:43:03;13.10;94.90
47226;DHT22;32965;64.142;-21.912;2022-08-19T11:46:48;13.30;94.60
47226;DHT22;32965;64.142;-21.912;2022-08-19T11:49:59;13.50;94.10
47226;DHT22;32965;64.142;-21.912;2022-08-19T11:53:08;13.40;94.00
47226;DHT22;32965;64.142;-21.912;2022-08-19T11:56:32;13.60;93.60
47226;DHT22;32965;64.142;-21.912;2022-08-19T12:00:04;13.70;92.90
47226;DHT22;32965;64.142;-21.912;2022-08-19T12:03:14;13.80;92.30
47226;DHT22;32965;64.142;-21.912;2022-08-19T12:06:49;13.60;92.20
47226;DHT22;32965;64.142;-21.912;2022-08-19T12:09:51;13.70;91.90
47226;DHT22;32965;64.142;-21.912;2022-08-19T12:13:16;13.90;91.50
47226;DHT22;32965;64.142;-21.912;2022-08-19T12:16:27;14.00;91.80
47226;DHT22;32965;64.142;-21.912;2022-08-19T12:19:31;14.10;92.00
47226;DHT22;32965;64.142;-21.912;2022-08-19T12:22:22;14.20;92.10
47226;DHT22;32965;64.142;-21.912;2022-08-19T12:25:05;14.10;92.00
47226;DHT22;32965;64.142;-21.912;2022-08-19T12:28:20;14.00;91.60
47226;DHT22;32965;64.142;-21.912;2022-08-19T12:31:04;14.00;91.00
47226;DHT22;32965;64.142;-21.912;2022-08-19T12:33:58;14.10;90.60
47226;DHT22;32965;64.142;-21.912;2022-08-19T12:37:08;14.40;89.60
47226;DHT22;32965;64.142;-21.912;2022-08-19T12:39:41;14.70;86.30
47226;DHT22;32965;64.142;-21.912;2022-08-19T12:42:14;14.70;83.00
47226;DHT22;32965;64.142;-21.912;2022-08-19T12:45:36;14.70;83.90
47226;DHT22;32965;64.142;-21.912;2022-08-19T12:48:25;14.70;81.70
47226;DHT22;32965;64.142;-21.912;2022-08-19T12:51:37;15.00;81.30
47226;DHT22;32965;64.142;-21.912;2022-08-19T12:54:03;15.00;80.80
47226;DHT22;32965;64.142;-21.912;2022-08-19T12:56:38;14.90;80.00
47226;DHT22;32965;64.142;-21.912;2022-08-19T12:59:13;15.00;79.80
47226;DHT22;32965;64.142;-21.912;2022-08-19T13:02:19;15.10;79.10
47226;DHT22;32965;64.142;-21.912;2022-08-19T13:05:50;15.30;78.90
47226;DHT22;32965;64.142;-21.912;2022-08-19T13:08:17;15.20;78.70
47226;DHT22;32965;64.142;-21.912;2022-08-19T13:11:11;15.10;79.60
47226;DHT22;32965;64.142;-21.912;2022-08-19T13:14:03;15.00;81.60
47226;DHT22;32965;64.142;-21.912;2022-08-19T13:17:10;14.80;86.70
47226;DHT22;32965;64.142;-21.912;2022-08-19T13:19:55;14.60;90.50
47226;DHT22;32965;64.142;-21.912;2022-08-19T13:22:51;14.00;92.00
47226;DHT22;32965;64.142;-21.912;2022-08-19T13:26:02;13.50;91.90
47226;DHT22;32965;64.142;-21.912;2022-08-19T13:29:26;13.70;93.00
47226;DHT22;32965;64.142;-21.912;2022-08-19T13:32:50;13.50;94.30
47226;DHT22;32965;64.142;-21.912;2022-08-19T13:35:59;13.50;94.90
47226;DHT22;32965;64.142;-21.912;2022-08-19T13:42:23;12.80;95.10
47226;DHT22;32965;64.142;-21.912;2022-08-19T13:45:37;13.50;95.50
47226;DHT22;32965;64.142;-21.912;2022-08-19T13:49:03;13.60;95.30
47226;DHT22;32965;64.142;-21.912;2022-08-19T13:59:05;13.80;95.10
47226;DHT22;32965;64.142;-21.912;2022-08-19T14:02:12;13.70;95.20
47226;DHT22;32965;64.142;-21.912;2022-08-19T14:05:17;13.70;95.90
47226;DHT22;32965;64.142;-21.912;2022-08-19T14:08:26;13.60;96.00
47226;DHT22;32965;64.142;-21.912;2022-08-19T14:11:20;13.60;96.00
47226;DHT22;32965;64.142;-21.912;2022-08-19T14:18:23;13.50;96.20
47226;DHT22;32965;64.142;-21.912;2022-08-19T14:21:52;13.20;96.80
47226;DHT22;32965;64.142;-21.912;2022-08-19T14:25:26;13.20;96.90
47226;DHT22;32965;64.142;-21.912;2022-08-19T14:37:42;13.40;96.00
47226;DHT22;32965;64.142;-21.912;2022-08-19T14:54:22;13.70;94.90
47226;DHT22;32965;64.142;-21.912;2022-08-19T15:05:01;13.70;95.90
47226;DHT22;32965;64.142;-21.912;2022-08-19T15:13:32;13.50;97.40
47226;DHT22;32965;64.142;-21.912;2022-08-19T15:16:33;13.40;97.40
47226;DHT22;32965;64.142;-21.912;2022-08-19T15:19:53;13.00;97.60
47226;DHT22;32965;64.142;-21.912;2022-08-19T15:23:19;13.00;97.80
47226;DHT22;32965;64.142;-21.912;2022-08-19T15:30:24;13.00;98.10
47226;DHT22;32965;64.142;-21.912;2022-08-19T15:33:31;12.90;98.40
47226;DHT22;32965;64.142;-21.912;2022-08-19T15:40:16;12.80;99.10
47226;DHT22;32965;64.142;-21.912;2022-08-19T15:43:24;12.80;99.60
47226;DHT22;32965;64.142;-21.912;2022-08-19T15:46:07;12.80;99.70
47226;DHT22;32965;64.142;-21.912;2022-08-19T15:51:42;12.40;99.90
47226;DHT22;32965;64.142;-21.912;2022-08-19T15:54:12;12.00;99.90
47226;DHT22;32965;64.142;-21.912;2022-08-19T15:56:38;11.90;99.90
47226;DHT22;32965;64.142;-21.912;2022-08-19T15:59:31;11.70;99.90
47226;DHT22;32965;64.142;-21.912;2022-08-19T16:02:19;11.50;99.90
47226;DHT22;32965;64.142;-21.912;2022-08-19T16:05:19;11.30;99.90
47226;DHT22;32965;64.142;-21.912;2022-08-19T16:08:06;11.10;99.90
47226;DHT22;32965;64.142;-21.912;2022-08-19T16:10:35;11.00;99.90
47226;DHT22;32965;64.142;-21.912;2022-08-19T16:13:02;10.90;99.90
47226;DHT22;32965;64.142;-21.912;2022-08-19T16:15:31;10.90;99.90
47226;DHT22;32965;64.142;-21.912;2022-08-19T16:17:58;10.80;99.90
47226;DHT22;32965;64.142;-21.912;2022-08-19T16:20:27;10.90;99.90
47226;DHT22;32965;64.142;-21.912;2022-08-19T16:22:53;10.90;99.90
47226;DHT22;32965;64.142;-21.912;2022-08-19T16:25:19;10.90;99.90
47226;DHT22;32965;64.142;-21.912;2022-08-19T16:27:45;10.80;99.90
47226;DHT22;32965;64.142;-21.912;2022-08-19T16:30:11;10.90;99.90
47226;DHT22;32965;64.142;-21.912;2022-08-19T16:32:42;10.90;99.90
47226;DHT22;32965;64.142;-21.912;2022-08-19T16:35:08;11.00;99.90
47226;DHT22;32965;64.142;-21.912;2022-08-19T16:37:34;11.10;99.90
47226;DHT22;32965;64.142;-21.912;2022-08-19T16:39:59;11.10;99.90
47226;DHT22;32965;64.142;-21.912;2022-08-19T16:42:25;11.10;99.90
47226;DHT22;32965;64.142;-21.912;2022-08-19T16:47:34;11.10;99.90
47226;DHT22;32965;64.142;-21.912;2022-08-19T16:50:00;11.20;99.90
47226;DHT22;32965;64.142;-21.912;2022-08-19T16:52:27;11.20;99.90
47226;DHT22;32965;64.142;-21.912;2022-08-19T16:54:54;11.20;99.90
47226;DHT22;32965;64.142;-21.912;2022-08-19T17:00:33;11.10;99.90
47226;DHT22;32965;64.142;-21.912;2022-08-19T17:03:11;11.10;99.90
47226;DHT22;32965;64.142;-21.912;2022-08-19T17:05:45;11.00;99.90
47226;DHT22;32965;64.142;-21.912;2022-08-19T17:08:50;11.00;99.90
47226;DHT22;32965;64.142;-21.912;2022-08-19T17:11:17;12.60;99.90
47226;DHT22;32965;64.142;-21.912;2022-08-19T17:13:48;10.80;99.90
47226;DHT22;32965;64.142;-21.912;2022-08-19T17:16:17;10.90;99.90
47226;DHT22;32965;64.142;-21.912;2022-08-19T17:18:44;11.00;99.90
47226;DHT22;32965;64.142;-21.912;2022-08-19T17:21:10;11.00;99.90
47226;DHT22;32965;64.142;-21.912;2022-08-19T17:23:37;11.00;99.90
47226;DHT22;32965;64.142;-21.912;2022-08-19T17:26:03;11.10;99.90
47226;DHT22;32965;64.142;-21.912;2022-08-19T17:28:29;11.10;99.90
47226;DHT22;32965;64.142;-21.912;2022-08-19T17:30:56;11.10;99.90
47226;DHT22;32965;64.142;-21.912;2022-08-19T17:33:22;11.10;99.90
47226;DHT22;32965;64.142;-21.912;2022-08-19T17:35:49;11.00;99.90
47226;DHT22;32965;64.142;-21.912;2022-08-19T17:38:18;11.00;99.90
47226;DHT22;32965;64.142;-21.912;2022-08-19T17:40:47;10.90;99.90
47226;DHT22;32965;64.142;-21.912;2022-08-19T17:43:15;10.90;99.90
47226;DHT22;32965;64.142;-21.912;2022-08-19T17:45:42;10.80;99.90
47226;DHT22;32965;64.142;-21.912;2022-08-19T17:48:09;10.70;99.90
47226;DHT22;32965;64.142;-21.912;2022-08-19T17:53:04;10.60;99.90
47226;DHT22;32965;64.142;-21.912;2022-08-19T17:55:31;10.60;99.90
47226;DHT22;32965;64.142;-21.912;2022-08-19T18:00:24;10.60;99.90
47226;DHT22;32965;64.142;-21.912;2022-08-19T18:02:53;10.60;99.90
47226;DHT22;32965;64.142;-21.912;2022-08-19T18:05:21;10.70;99.90
47226;DHT22;32965;64.142;-21.912;2022-08-19T18:07:49;10.70;99.90
47226;DHT22;32965;64.142;-21.912;2022-08-19T18:10:16;10.70;99.90
47226;DHT22;32965;64.142;-21.912;2022-08-19T18:12:43;10.70;99.90
47226;DHT22;32965;64.142;-21.912;2022-08-19T18:15:10;10.70;99.90
47226;DHT22;32965;64.142;-21.912;2022-08-19T18:17:36;10.70;99.90
47226;DHT22;32965;64.142;-21.912;2022-08-19T18:20:04;10.80;99.90
47226;DHT22;32965;64.142;-21.912;2022-08-19T18:22:37;10.80;99.90
47226;DHT22;32965;64.142;-21.912;2022-08-19T18:25:22;10.90;99.90
47226;DHT22;32965;64.142;-21.912;2022-08-19T18:27:52;10.90;99.90
47226;DHT22;32965;64.142;-21.912;2022-08-19T18:30:18;10.90;99.90
47226;DHT22;32965;64.142;-21.912;2022-08-19T18:32:45;11.00;99.90
47226;DHT22;32965;64.142;-21.912;2022-08-19T18:35:21;11.00;99.90
47226;DHT22;32965;64.142;-21.912;2022-08-19T18:37:47;11.00;99.90
47226;DHT22;32965;64.142;-21.912;2022-08-19T18:40:16;11.00;99.90
47226;DHT22;32965;64.142;-21.912;2022-08-19T18:43:01;11.10;99.90
47226;DHT22;32965;64.142;-21.912;2022-08-19T18:45:46;11.10;99.90
47226;DHT22;32965;64.142;-21.912;2022-08-19T18:48:30;11.10;99.90
47226;DHT22;32965;64.142;-21.912;2022-08-19T18:51:15;11.00;99.90
47226;DHT22;32965;64.142;-21.912;2022-08-19T18:53:43;10.90;99.90
47226;DHT22;32965;64.142;-21.912;2022-08-19T18:56:11;10.90;99.90
47226;DHT22;32965;64.142;-21.912;2022-08-19T18:58:39;10.90;99.90
47226;DHT22;32965;64.142;-21.912;2022-08-19T19:01:17;10.90;99.90
47226;DHT22;32965;64.142;-21.912;2022-08-19T19:03:49;10.90;99.90
47226;DHT22;32965;64.142;-21.912;2022-08-19T19:06:18;10.90;99.90
47226;DHT22;32965;64.142;-21.912;2022-08-19T19:08:45;10.90;99.90
47226;DHT22;32965;64.142;-21.912;2022-08-19T19:11:11;10.90;99.90
47226;DHT22;32965;64.142;-21.912;2022-08-19T19:13:38;10.90;99.90
47226;DHT22;32965;64.142;-21.912;2022-08-19T19:16:11;11.00;99.90
47226;DHT22;32965;64.142;-21.912;2022-08-19T19:18:37;11.10;99.90
47226;DHT22;32965;64.142;-21.912;2022-08-19T19:21:03;11.10;99.90
47226;DHT22;32965;64.142;-21.912;2022-08-19T19:23:29;11.20;99.90
47226;DHT22;32965;64.142;-21.912;2022-08-19T19:25:55;11.20;99.90
47226;DHT22;32965;64.142;-21.912;2022-08-19T19:28:22;11.20;99.90
47226;DHT22;32965;64.142;-21.912;2022-08-19T19:30:55;11.30;99.90
47226;DHT22;32965;64.142;-21.912;2022-08-19T19:33:23;11.30;99.90
47226;DHT22;32965;64.142;-21.912;2022-08-19T19:35:50;11.30;99.90
47226;DHT22;32965;64.142;-21.912;2022-08-19T19:38:16;11.30;99.90
47226;DHT22;32965;64.142;-21.912;2022-08-19T19:40:42;11.30;99.90
47226;DHT22;32965;64.142;-21.912;2022-08-19T19:43:08;11.20;99.90
47226;DHT22;32965;64.142;-21.912;2022-08-19T19:45:33;11.20;99.90
47226;DHT22;32965;64.142;-21.912;2022-08-19T19:47:59;11.20;99.90
47226;DHT22;32965;64.142;-21.912;2022-08-19T19:50:26;11.20;99.90
47226;DHT22;32965;64.142;-21.912;2022-08-19T19:52:56;11.30;99.90
47226;DHT22;32965;64.142;-21.912;2022-08-19T19:55:22;11.30;99.90
47226;DHT22;32965;64.142;-21.912;2022-08-19T19:57:51;11.20;99.90
47226;DHT22;32965;64.142;-21.912;2022-08-19T20:00:18;11.20;99.90
47226;DHT22;32965;64.142;-21.912;2022-08-19T20:02:44;11.20;99.90
47226;DHT22;32965;64.142;-21.912;2022-08-19T20:05:11;11.20;99.90
47226;DHT22;32965;64.142;-21.912;2022-08-19T20:07:38;11.30;99.90
47226;DHT22;32965;64.142;-21.912;2022-08-19T20:10:23;11.30;99.80
47226;DHT22;32965;64.142;-21.912;2022-08-19T20:12:49;11.40;99.20
47226;DHT22;32965;64.142;-21.912;2022-08-19T20:15:16;11.40;98.90
47226;DHT22;32965;64.142;-21.912;2022-08-19T20:17:43;11.40;99.30
47226;DHT22;32965;64.142;-21.912;2022-08-19T20:20:13;11.30;99.80
47226;DHT22;32965;64.142;-21.912;2022-08-19T20:22:42;11.30;99.90
47226;DHT22;32965;64.142;-21.912;2022-08-19T20:25:09;11.30;99.90
47226;DHT22;32965;64.142;-21.912;2022-08-19T20:27:37;11.10;99.90
47226;DHT22;32965;64.142;-21.912;2022-08-19T20:30:08;11.10;99.90
47226;DHT22;32965;64.142;-21.912;2022-08-19T20:32:34;11.00;99.90
47226;DHT22;32965;64.142;-21.912;2022-08-19T20:35:00;11.00;99.90
47226;DHT22;32965;64.142;-21.912;2022-08-19T20:37:26;11.00;99.90
47226;DHT22;32965;64.142;-21.912;2022-08-19T20:39:52;10.90;99.90
47226;DHT22;32965;64.142;-21.912;2022-08-19T20:42:19;10.90;99.90
47226;DHT22;32965;64.142;-21.912;2022-08-19T20:44:45;10.80;99.90
47226;DHT22;32965;64.142;-21.912;2022-08-19T20:47:10;10.80;99.90
47226;DHT22;32965;64.142;-21.912;2022-08-19T20:49:36;10.80;99.90
47226;DHT22;32965;64.142;-21.912;2022-08-19T20:52:03;10.70;99.90
47226;DHT22;32965;64.142;-21.912;2022-08-19T20:54:29;10.70;99.90
47226;DHT22;32965;64.142;-21.912;2022-08-19T20:56:55;10.60;99.90
47226;DHT22;32965;64.142;-21.912;2022-08-19T20:59:23;10.60;99.90
47226;DHT22;32965;64.142;-21.912;2022-08-19T21:01:51;10.60;99.90
47226;DHT22;32965;64.142;-21.912;2022-08-19T21:04:17;10.60;99.90
47226;DHT22;32965;64.142;-21.912;2022-08-19T21:06:43;10.60;99.90
47226;DHT22;32965;64.142;-21.912;2022-08-19T21:09:09;10.60;99.90
47226;DHT22;32965;64.142;-21.912;2022-08-19T21:11:35;10.50;99.90
47226;DHT22;32965;64.142;-21.912;2022-08-19T21:14:01;10.60;99.90
47226;DHT22;32965;64.142;-21.912;2022-08-19T21:16:27;10.60;99.90
47226;DHT22;32965;64.142;-21.912;2022-08-19T21:18:53;10.80;99.90
47226;DHT22;32965;64.142;-21.912;2022-08-19T21:21:19;11.00;99.90
47226;DHT22;32965;64.142;-21.912;2022-08-19T21:23:46;11.00;99.90
47226;DHT22;32965;64.142;-21.912;2022-08-19T21:26:13;11.00;99.90
47226;DHT22;32965;64.142;-21.912;2022-08-19T21:28:39;11.10;99.80
47226;DHT22;32965;64.142;-21.912;2022-08-19T21:31:06;11.10;99.80
47226;DHT22;32965;64.142;-21.912;2022-08-19T21:33:36;11.00;99.90
47226;DHT22;32965;64.142;-21.912;2022-08-19T21:36:03;11.00;99.80
47226;DHT22;32965;64.142;-21.912;2022-08-19T21:38:29;11.00;99.80
47226;DHT22;32965;64.142;-21.912;2022-08-19T21:40:56;11.10;99.30
47226;DHT22;32965;64.142;-21.912;2022-08-19T21:43:22;11.10;99.50
47226;DHT22;32965;64.142;-21.912;2022-08-19T21:45:48;11.10;99.40
47226;DHT22;32965;64.142;-21.912;2022-08-19T21:48:16;10.90;99.80
47226;DHT22;32965;64.142;-21.912;2022-08-19T21:50:44;10.90;99.90
47226;DHT22;32965;64.142;-21.912;2022-08-19T21:53:10;10.80;99.90
47226;DHT22;32965;64.142;-21.912;2022-08-19T21:55:42;10.70;99.90
47226;DHT22;32965;64.142;-21.912;2022-08-19T21:58:09;10.60;99.90
47226;DHT22;32965;64.142;-21.912;2022-08-19T22:00:41;10.50;99.90
47226;DHT22;32965;64.142;-21.912;2022-08-19T22:03:08;10.60;99.90
47226;DHT22;32965;64.142;-21.912;2022-08-19T22:08:01;10.60;99.90
47226;DHT22;32965;64.142;-21.912;2022-08-19T22:10:31;10.60;99.90
47226;DHT22;32965;64.142;-21.912;2022-08-19T22:18:00;10.70;99.90
47226;DHT22;32965;64.142;-21.912;2022-08-19T22:20:30;10.70;99.90
47226;DHT22;32965;64.142;-21.912;2022-08-19T22:23:00;10.60;99.90
47226;DHT22;32965;64.142;-21.912;2022-08-19T22:25:30;10.60;99.90
47226;DHT22;32965;64.142;-21.912;2022-08-19T22:27:58;10.70;99.90
47226;DHT22;32965;64.142;-21.912;2022-08-19T22:30:25;10.60;99.90
47226;DHT22;32965;64.142;-21.912;2022-08-19T22:32:54;10.70;99.90
47226;DHT22;32965;64.142;-21.912;2022-08-19T22:35:22;10.70;99.90
47226;DHT22;32965;64.142;-21.912;2022-08-19T22:37:49;10.70;99.90
47226;DHT22;32965;64.142;-21.912;2022-08-19T22:40:18;10.70;99.90
47226;DHT22;32965;64.142;-21.912;2022-08-19T22:42:44;10.80;99.90
47226;DHT22;32965;64.142;-21.912;2022-08-19T22:45:12;11.00;99.50
47226;DHT22;32965;64.142;-21.912;2022-08-19T22:47:41;11.10;98.80
47226;DHT22;32965;64.142;-21.912;2022-08-19T22:50:16;11.10;98.70
47226;DHT22;32965;64.142;-21.912;2022-08-19T22:52:42;11.00;99.00
47226;DHT22;32965;64.142;-21.912;2022-08-19T22:55:09;10.90;99.50
47226;DHT22;32965;64.142;-21.912;2022-08-19T22:57:35;10.90;99.90
47226;DHT22;32965;64.142;-21.912;2022-08-19T23:00:04;10.80;99.90
47226;DHT22;32965;64.142;-21.912;2022-08-19T23:02:33;10.70;99.90
47226;DHT22;32965;64.142;-21.912;2022-08-19T23:05:08;10.70;99.90
47226;DHT22;32965;64.142;-21.912;2022-08-19T23:07:34;10.70;99.90
47226;DHT22;32965;64.142;-21.912;2022-08-19T23:10:01;10.70;99.90
47226;DHT22;32965;64.142;-21.912;2022-08-19T23:12:39;10.70;99.90
47226;DHT22;32965;64.142;-21.912;2022-08-19T23:15:19;10.60;99.90
47226;DHT22;32965;64.142;-21.912;2022-08-19T23:17:51;10.60;99.90
47226;DHT22;32965;64.142;-21.912;2022-08-19T23:20:18;10.70;99.90
47226;DHT22;32965;64.142;-21.912;2022-08-19T23:22:46;10.80;99.90
47226;DHT22;32965;64.142;-21.912;2022-08-19T23:25:18;10.80;99.90
47226;DHT22;32965;64.142;-21.912;2022-08-19T23:27:45;10.70;99.90
47226;DHT22;32965;64.142;-21.912;2022-08-19T23:30:31;10.70;99.90
47226;DHT22;32965;64.142;-21.912;2022-08-19T23:33:01;10.70;99.90
47226;DHT22;32965;64.142;-21.912;2022-08-19T23:35:34;10.70;99.90
47226;DHT22;32965;64.142;-21.912;2022-08-19T23:38:04;10.80;99.90
47226;DHT22;32965;64.142;-21.912;2022-08-19T23:40:31;10.80;99.90
47226;DHT22;32965;64.142;-21.912;2022-08-19T23:42:57;10.80;99.90
47226;DHT22;32965;64.142;-21.912;2022-08-19T23:45:24;10.80;99.90
47226;DHT22;32965;64.142;-21.912;2022-08-19T23:47:52;10.80;99.90
47226;DHT22;32965;64.142;-21.912;2022-08-19T23:50:18;10.80;99.90
47226;DHT22;32965;64.142;-21.912;2022-08-19T23:52:51;10.80;99.90
47226;DHT22;32965;64.142;-21.912;2022-08-19T23:55:20;10.90;99.60
47226;DHT22;32965;64.142;-21.912;2022-08-19T23:57:47;11.10;99.30
